• Join FlightAware (Why Join?)
  • Login
  • US Flag 
10:54PM EDT


 

Airport Tracker/Info


-or-


 

Live Flight TrackerFlight Track Log ✈ SLI2633 ✈ 23-Apr-2012 ✈ MMAS / AGU - MMMX / MEX

Flight Track Log - Related Links

Times and Time Zones

All times are in EDT time to prevent confusion due to time zone crossing. See the SLI2633 flight status page for this flight to view local times or setup timezone preferences in your user account.

Time Position Orientation Groundspeed Altitude Reporting Facility
EDT Latitude Longitude Course Direction KTS MPH feet Rate Location/Type
12:31PM 21.6908 -102.2962 126° Southeast  Level Estimated
12:32PM 21.6319 -102.2097 126° Southeast  Level Estimated
12:33PM 21.5730 -102.1232 126° Southeast  Level Estimated
12:34PM 21.5140 -102.0368 126° Southeast  Level Estimated
12:35PM 21.4550 -101.9504 126° Southeast  Level Estimated
12:36PM 21.3960 -101.8641 126° Southeast  Level Estimated
12:37PM 21.3369 -101.7779 126° Southeast  Level Estimated
12:38PM 21.2778 -101.6918 126° Southeast  Level Estimated
12:39PM 21.2186 -101.6057 126° Southeast  Level Estimated
12:40PM 21.1594 -101.5197 126° Southeast  Level Estimated
12:41PM 21.1001 -101.4338 126° Southeast  Level Estimated
12:42PM 21.0408 -101.3479 127° Southeast  Level Estimated
12:43PM 20.9815 -101.2621 127° Southeast  Level Estimated
12:44PM 20.9221 -101.1764 127° Southeast  Level Estimated
12:45PM 20.8626 -101.0908 127° Southeast  Level Estimated
12:46PM 20.8032 -101.0052 127° Southeast  Level Estimated
12:47PM 20.7437 -100.9196 127° Southeast  Level Estimated
12:48PM 20.6841 -100.8342 127° Southeast  Level Estimated
12:49PM 20.6245 -100.7488 127° Southeast  Level Estimated
12:50PM 20.5648 -100.6635 127° Southeast  Level Estimated
12:51PM 20.5052 -100.5782 127° Southeast  Level Estimated
12:52PM 20.4454 -100.4930 127° Southeast  Level Estimated
12:53PM 20.3857 -100.4079 127° Southeast  Level Estimated
12:54PM 20.3258 -100.3228 127° Southeast  Level Estimated
12:55PM 20.2660 -100.2378 127° Southeast  Level Estimated
12:56PM 20.2061 -100.1529 127° Southeast  Level Estimated
12:57PM 20.1462 -100.0681 127° Southeast  Level Estimated
12:58PM 20.0862 -99.9833 127° Southeast  Level Estimated
12:59PM 20.0262 -99.8985 127° Southeast  Level Estimated
01:00PM 19.9661 -99.8139 127° Southeast  Level Estimated
01:01PM 19.9060 -99.7293 127° Southeast  Level Estimated
01:02PM 19.8459 -99.6447 127° Southeast  Level Estimated
01:03PM 19.7857 -99.5603 127° Southeast  Level Estimated
01:04PM 19.7255 -99.4759 127° Southeast  Level Estimated
01:05PM 19.6653 -99.3915 127° Southeast  Level Estimated
01:06PM 19.6050 -99.3072 127° Southeast  Level Estimated
01:07PM 19.5446 -99.2230 127° Southeast  Level Estimated
01:08PM 19.4843 -99.1389 127° Southeast  Level Estimated
01:09PM 19.4239 -99.0548 307° West  Level Estimated
01:10PM 19.4843 -99.1389 127° Southeast  Level Estimated
01:11PM 19.4239 -99.0548 307° West  Level Estimated
01:12PM 19.4843 -99.1389 127° Southeast  Level Estimated
01:13PM 19.4239 -99.0548 307° West  Level Estimated
01:14PM 19.4843 -99.1389 307° West  Level Estimated